Terminal Aerodrome Forecast
Issued by NWS

Home | Current Version | Previous Version | Text Only | Print | Product List | Glossary On
Versions: 1 2 3 4 5 6 7 8 9 10 11 12
000
FTPA31 PHFO 190531
TAFHTO
TAF
PHTO 190531Z 1906/2006 30005KT P6SM FEW025 BKN050
     FM190800 26005KT P6SM FEW025 FEW045
     FM192000 35015G23KT P6SM VCSH SCT025 BKN050
     FM200500 28005KT P6SM FEW025 SCT045=

USA.gov is the U.S. government's official web portal to all federal, state and local government web resources and services.